Time;durP1;ratioP1;P1;durP2;ratioP2;P2;SDS_P1;SDS_P2;PMS_P1;PMS_P2;Temp;Humidity;BMP_temperature;BMP_pressure;BME280_temperature;BME280_humidity;BME280_pressure;Samples;Min_cycle;Max_cycle;Signal;HPM_P1;HPM_P2
2023/03/04 00:01:11;;;;;;;34.38;17.37;;;;;;;1.82;91.23;99652.09;1711738;84;21176;-80
2023/03/04 00:04:16;;;;;;;25.85;15.83;;;;;;;1.83;91.28;99649.25;1710532;84;21150;-90
2023/03/04 00:07:20;;;;;;;26.60;15.93;;;;;;;1.81;91.35;99645.00;1711773;84;21729;-90
2023/03/04 00:10:26;;;;;;;28.20;15.53;;;;;;;1.78;91.42;99642.91;1710382;84;21187;-81
2023/03/04 00:13:33;;;;;;;28.83;15.45;;;;;;;1.77;91.55;99638.52;1710270;84;21184;-89
2023/03/04 00:16:38;;;;;;;26.42;14.35;;;;;;;1.76;91.72;99631.42;1710363;84;21235;-80
2023/03/04 00:19:38;;;;;;;27.58;15.72;;;;;;;1.74;91.94;99632.07;1711670;84;21189;-87
2023/03/04 00:22:43;;;;;;;28.40;17.20;;;;;;;1.74;92.17;99632.07;1711408;84;21192;-79
2023/03/04 00:25:50;;;;;;;26.50;15.08;;;;;;;1.79;92.37;99635.70;1711083;84;21839;-79
2023/03/04 00:28:57;;;;;;;28.62;16.42;;;;;;;1.84;92.31;99626.71;1710685;84;21240;-88
2023/03/04 00:32:03;;;;;;;26.80;15.43;;;;;;;1.88;92.32;99625.91;1707795;84;21259;-88
2023/03/04 00:35:11;;;;;;;33.58;16.35;;;;;;;1.92;92.54;99621.95;1711554;84;21221;-87
2023/03/04 00:38:18;;;;;;;27.55;16.15;;;;;;;1.98;92.61;99619.58;1711061;84;21208;-80
2023/03/04 00:41:23;;;;;;;38.45;15.08;;;;;;;2.04;92.40;99620.86;1711711;84;21236;-80
2023/03/04 00:44:29;;;;;;;24.40;15.65;;;;;;;2.09;92.21;99611.01;1710467;84;21181;-89
2023/03/04 00:47:35;;;;;;;27.42;15.28;;;;;;;2.08;92.04;99612.00;1711654;84;21248;-90
2023/03/04 00:50:40;;;;;;;27.98;14.95;;;;;;;2.07;92.07;99603.53;1711388;84;21172;-78
2023/03/04 00:53:46;;;;;;;26.90;14.55;;;;;;;2.04;92.15;99604.67;1710655;84;21872;-80
2023/03/04 00:56:53;;;;;;;28.20;15.55;;;;;;;2.02;92.27;99603.48;1710784;84;21165;-88
2023/03/04 00:59:58;;;;;;;20.70;13.43;;;;;;;2.02;92.34;99595.85;1711255;84;21255;-80
2023/03/04 01:06:54;;;;;;;27.10;16.30;;;;;;;2.01;92.39;99599.55;1710157;84;21452;-80
2023/03/04 01:10:02;;;;;;;26.27;14.75;;;;;;;2.00;92.58;99596.00;1711740;83;21125;-80
2023/03/04 01:13:11;;;;;;;22.15;14.03;;;;;;;2.02;92.62;99592.69;1711903;84;21188;-81
2023/03/04 01:20:10;;;;;;;23.55;14.45;;;;;;;2.14;92.38;99596.09;1780788;80;21792;-89
2023/03/04 01:23:17;;;;;;;26.68;15.18;;;;;;;2.20;91.85;99597.37;1800352;79;21773;-80
2023/03/04 01:26:23;;;;;;;30.23;15.63;;;;;;;2.21;91.58;99601.77;1782588;80;21176;-89
2023/03/04 01:29:29;;;;;;;24.80;14.47;;;;;;;2.20;91.33;99594.18;1781027;80;21169;-80
2023/03/04 01:32:35;;;;;;;26.48;14.25;;;;;;;2.18;91.26;99588.08;1801076;79;21726;-88
2023/03/04 01:35:41;;;;;;;25.00;15.23;;;;;;;2.16;91.17;99596.80;1781348;80;21228;-79
2023/03/04 01:38:47;;;;;;;32.15;17.25;;;;;;;2.15;91.07;99600.50;1781317;80;21765;-79
2023/03/04 01:41:53;;;;;;;33.08;17.00;;;;;;;2.13;90.99;99601.14;1801021;79;21236;-80
2023/03/04 01:44:59;;;;;;;26.65;15.10;;;;;;;2.13;91.04;99600.30;1782077;80;21207;-88
2023/03/04 01:48:06;;;;;;;33.18;16.35;;;;;;;2.12;91.09;99599.91;1781762;80;21298;-80
2023/03/04 01:51:14;;;;;;;25.52;16.60;;;;;;;2.10;91.09;99596.02;1801234;79;21170;-88
2023/03/04 01:54:20;;;;;;;28.20;14.85;;;;;;;2.08;91.10;99597.16;1782530;80;21200;-89
2023/03/04 01:57:30;;;;;;;30.90;17.73;;;;;;;2.07;91.07;99599.02;1782440;80;21283;-89
2023/03/04 02:00:40;;;;;;;28.12;16.15;;;;;;;2.04;90.98;99599.28;1801019;79;21189;-87
2023/03/04 02:03:45;;;;;;;34.05;16.75;;;;;;;2.01;90.90;99608.49;1782600;80;21200;-87
2023/03/04 02:06:53;;;;;;;27.42;15.53;;;;;;;1.98;90.92;99600.70;1782601;80;21145;-89
2023/03/04 02:10:00;;;;;;;31.33;17.20;;;;;;;1.96;90.96;99602.66;1801399;79;21695;-90
2023/03/04 02:13:07;;;;;;;28.90;16.70;;;;;;;1.94;90.79;99603.81;1781863;80;21820;-80
2023/03/04 02:16:15;;;;;;;26.62;16.77;;;;;;;1.88;90.84;99602.49;1747500;81;21721;-79
2023/03/04 02:19:26;;;;;;;30.30;17.48;;;;;;;1.86;90.71;99595.05;1846580;77;21231;-78
2023/03/04 02:22:32;;;;;;;27.95;17.23;;;;;;;1.84;90.59;99600.24;1847951;77;21165;-87
2023/03/04 02:25:48;;;;;;;27.80;14.90;;;;;;;1.79;90.55;99600.66;1776172;81;21434;-80
2023/03/04 02:28:54;;;;;;;27.05;16.50;;;;;;;1.76;90.69;99603.61;1845895;77;21184;-80
2023/03/04 02:31:59;;;;;;;31.25;16.55;;;;;;;1.71;90.71;99607.22;1775726;81;21177;-80
2023/03/04 02:35:06;;;;;;;29.92;17.20;;;;;;;1.65;90.59;99601.88;1847617;77;21730;-80
2023/03/04 02:38:13;;;;;;;35.78;17.12;;;;;;;1.55;90.55;99598.27;1774257;81;21184;-90
2023/03/04 02:41:20;;;;;;;30.43;16.02;;;;;;;1.49;90.63;99596.13;1847445;77;21137;-79
2023/03/04 02:44:30;;;;;;;25.80;15.98;;;;;;;1.40;90.79;99590.20;1774328;80;21233;-80
2023/03/04 02:47:35;;;;;;;32.25;17.25;;;;;;;1.33;91.04;99598.48;1847218;77;21199;-88
2023/03/04 02:50:53;;;;;;;33.75;17.15;;;;;;;1.26;91.27;99594.96;1776095;81;21205;-88
2023/03/04 02:53:59;;;;;;;25.08;16.50;;;;;;;1.18;91.57;99602.88;1846620;77;21640;-79
2023/03/04 02:57:08;;;;;;;26.12;16.77;;;;;;;1.10;91.76;99600.00;1774741;81;21177;-79
2023/03/04 03:00:18;;;;;;;34.55;16.42;;;;;;;1.02;91.95;99602.49;1847502;77;21134;-89
2023/03/04 03:03:25;;;;;;;32.00;17.82;;;;;;;0.95;92.23;99606.72;1774393;80;21212;-79
2023/03/04 03:06:34;;;;;;;30.23;17.45;;;;;;;0.87;92.54;99599.28;1846978;77;21216;-79
2023/03/04 03:09:40;;;;;;;27.60;15.83;;;;;;;0.80;92.77;99606.66;1775745;81;21166;-79
2023/03/04 03:12:45;;;;;;;31.20;17.35;;;;;;;0.72;93.03;99605.50;1847364;77;21208;-88
2023/03/04 03:15:52;;;;;;;29.48;17.40;;;;;;;0.66;93.33;99600.64;1774661;80;21177;-89
2023/03/04 03:18:58;;;;;;;26.10;15.70;;;;;;;0.63;93.57;99599.55;1843624;78;21196;-80
2023/03/04 03:22:05;;;;;;;31.27;17.17;;;;;;;0.59;93.87;99604.83;1772418;80;21169;-80
2023/03/04 03:25:05;;;;;;;29.63;17.25;;;;;;;0.53;94.12;99604.01;1772150;81;21176;-89
2023/03/04 03:27:58;;;;;;;33.08;16.75;;;;;;;0.48;94.33;99599.51;1789109;80;21174;-80
2023/03/04 03:30:46;;;;;;;28.85;16.55;;;;;;;0.45;94.64;99599.76;1773674;81;21718;-84
2023/03/04 03:33:38;;;;;;;28.27;16.93;;;;;;;0.43;94.89;99595.01;1772154;81;21775;-80
2023/03/04 03:36:24;;;;;;;32.23;16.02;;;;;;;0.41;95.11;99594.27;1789255;80;21766;-88
2023/03/04 03:39:17;;;;;;;35.25;19.52;;;;;;;0.41;95.32;99594.27;1772324;80;21224;-91
2023/03/04 03:42:03;;;;;;;33.02;17.55;;;;;;;0.40;95.39;99592.56;1773562;81;21197;-80
2023/03/04 03:44:57;;;;;;;28.17;17.90;;;;;;;0.39;95.48;99585.48;1788216;80;21217;-80
2023/03/04 03:47:43;;;;;;;32.70;19.37;;;;;;;0.37;95.65;99584.25;1772555;80;21593;-78
2023/03/04 03:50:48;;;;;;;36.63;19.27;;;;;;;0.36;95.80;99588.42;1773694;81;21237;-88
2023/03/04 03:53:54;;;;;;;38.08;20.35;;;;;;;0.36;95.90;99587.08;1788602;80;21185;-79
2023/03/04 03:57:00;;;;;;;35.50;20.00;;;;;;;0.35;95.89;99586.23;1772466;80;21200;-79
2023/03/04 04:00:07;;;;;;;30.57;19.87;;;;;;;0.30;96.08;99592.48;1773890;81;21449;-78
2023/03/04 04:03:13;;;;;;;39.75;20.27;;;;;;;0.29;96.28;99586.75;1788856;80;21703;-89
2023/03/04 04:06:19;;;;;;;35.28;19.80;;;;;;;0.26;96.34;99592.38;1773568;81;21189;-89
2023/03/04 04:09:24;;;;;;;36.93;20.40;;;;;;;0.24;96.26;99597.05;1772386;81;21832;-88
2023/03/04 04:12:30;;;;;;;41.05;21.02;;;;;;;0.20;96.32;99589.72;1788179;80;21746;-88
2023/03/04 04:15:37;;;;;;;36.40;21.85;;;;;;;0.19;96.39;99593.39;1772409;81;21164;-78
2023/03/04 04:18:43;;;;;;;37.10;20.05;;;;;;;0.18;96.58;99593.00;1770931;81;21208;-78
2023/03/04 04:21:54;;;;;;;34.40;19.10;;;;;;;0.21;96.61;99593.25;1789853;80;21209;-88
2023/03/04 04:24:57;;;;;;;43.70;22.05;;;;;;;0.20;96.61;99595.09;1772731;81;21173;-78
2023/03/04 04:27:58;;;;;;;35.20;21.07;;;;;;;0.19;96.72;99600.61;1772897;81;21185;-78
2023/03/04 04:31:03;;;;;;;33.67;19.07;;;;;;;0.18;96.80;99595.70;1790066;80;21147;-89
2023/03/04 04:34:09;;;;;;;32.25;20.97;;;;;;;0.19;96.97;99601.46;1775361;80;21216;-88
2023/03/04 04:37:15;;;;;;;40.45;23.30;;;;;;;0.20;97.13;99603.66;1777312;79;21193;-88
2023/03/04 04:40:20;;;;;;;39.55;21.85;;;;;;;0.21;97.15;99598.63;1792137;78;21465;-89
2023/03/04 04:43:26;;;;;;;38.15;22.25;;;;;;;0.24;97.21;99606.45;1776048;80;21432;-87
2023/03/04 04:46:32;;;;;;;40.58;21.33;;;;;;;0.29;97.19;99608.77;1773821;81;21208;-79
2023/03/04 04:49:37;;;;;;;48.73;25.32;;;;;;;0.33;97.14;99600.77;1767855;80;21150;-89
2023/03/04 04:52:44;;;;;;;42.10;23.95;;;;;;;0.35;97.05;99604.20;1772094;80;21761;-80
2023/03/04 04:55:44;;;;;;;40.85;24.23;;;;;;;0.37;96.99;99602.23;1773639;81;21168;-80
2023/03/04 04:58:52;;;;;;;39.67;21.75;;;;;;;0.40;96.93;99608.22;1788388;80;21169;-88
2023/03/04 05:02:00;;;;;;;40.83;23.50;;;;;;;0.47;96.87;99608.08;1772247;80;21705;-89
2023/03/04 05:05:06;;;;;;;42.10;23.98;;;;;;;0.55;96.72;99608.76;1773628;81;21173;-80
2023/03/04 05:08:11;;;;;;;37.42;21.82;;;;;;;0.61;96.56;99605.56;1787922;80;21170;-79
2023/03/04 05:11:18;;;;;;;45.08;22.42;;;;;;;0.67;96.18;99607.73;1772028;81;21224;-88
2023/03/04 05:14:24;;;;;;;43.25;21.87;;;;;;;0.73;95.96;99609.04;1772025;81;21225;-79
2023/03/04 05:17:31;;;;;;;40.10;21.77;;;;;;;0.75;95.67;99609.28;1789423;80;21221;-80
2023/03/04 05:20:37;;;;;;;36.10;21.70;;;;;;;0.80;95.53;99611.58;1742641;81;21180;-80
2023/03/04 05:23:47;;;;;;;42.00;22.80;;;;;;;0.87;95.36;99619.48;1770249;81;21185;-88
2023/03/04 05:26:54;;;;;;;41.18;22.70;;;;;;;0.95;95.21;99613.45;1769660;81;21149;-80
2023/03/04 05:29:59;;;;;;;35.23;21.37;;;;;;;1.03;95.05;99614.97;1771029;81;21149;-81
2023/03/04 05:33:06;;;;;;;42.65;24.63;;;;;;;1.11;94.89;99627.28;1769491;81;21240;-80
2023/03/04 05:36:13;;;;;;;41.42;22.42;;;;;;;1.16;94.65;99630.43;1771170;81;21192;-80
2023/03/04 05:39:20;;;;;;;40.58;21.42;;;;;;;1.23;94.49;99633.47;1770518;81;21204;-88
2023/03/04 05:42:26;;;;;;;41.73;21.45;;;;;;;1.26;94.09;99634.03;1771184;81;21295;-87
2023/03/04 05:45:31;;;;;;;33.10;19.40;;;;;;;1.31;93.96;99636.33;1771180;81;21129;-81
2023/03/04 05:48:37;;;;;;;36.23;20.72;;;;;;;1.38;93.85;99640.20;1770587;81;21754;-87
2023/03/04 05:51:42;;;;;;;36.93;20.62;;;;;;;1.47;93.71;99642.59;1771140;81;21707;-87
2023/03/04 05:54:52;;;;;;;36.20;21.70;;;;;;;1.58;93.46;99653.27;1771021;81;21173;-87
2023/03/04 05:57:56;;;;;;;41.48;22.77;;;;;;;1.65;93.18;99646.87;1771196;81;21228;-80
2023/03/04 06:01:00;;;;;;;33.15;19.65;;;;;;;1.69;92.83;99654.52;1771134;81;21201;-86
2023/03/04 06:04:05;;;;;;;31.80;19.75;;;;;;;1.71;92.34;99653.05;1771109;81;21228;-83
2023/03/04 06:07:10;;;;;;;40.23;23.05;;;;;;;1.74;92.12;99657.69;1771300;81;21761;-86
2023/03/04 06:10:18;;;;;;;43.68;22.70;;;;;;;1.78;92.03;99653.70;1770460;81;21192;-86
2023/03/04 06:13:25;;;;;;;38.30;20.80;;;;;;;1.85;91.87;99658.57;1769921;81;21196;-87
2023/03/04 06:16:31;;;;;;;37.38;22.87;;;;;;;1.92;91.51;99650.27;1769918;81;21482;-81
2023/03/04 06:19:38;;;;;;;37.30;21.82;;;;;;;1.98;91.40;99653.30;1773308;80;21177;-87
2023/03/04 06:22:43;;;;;;;34.80;22.52;;;;;;;2.10;91.59;99654.02;1765531;81;21205;-87
2023/03/04 06:25:50;;;;;;;35.17;20.77;;;;;;;2.17;91.19;99648.44;1836333;78;21176;-81
2023/03/04 06:28:55;;;;;;;40.58;24.20;;;;;;;2.23;90.90;99647.03;1834858;78;21219;-85
2023/03/04 06:32:02;;;;;;;38.63;22.45;;;;;;;2.29;90.46;99640.56;1836430;78;21153;-87
2023/03/04 06:35:09;;;;;;;40.40;22.42;;;;;;;2.35;90.23;99645.05;1836298;78;21153;-79
2023/03/04 06:38:14;;;;;;;37.63;22.58;;;;;;;2.40;90.05;99638.73;1835748;78;21173;-80
2023/03/04 06:41:20;;;;;;;37.33;21.60;;;;;;;2.45;89.71;99638.69;1764113;81;21201;-80
2023/03/04 06:44:26;;;;;;;40.50;22.37;;;;;;;2.55;89.78;99634.64;1834678;78;21267;-86
2023/03/04 06:47:32;;;;;;;41.20;23.38;;;;;;;2.62;89.28;99641.66;1765369;81;21224;-80
2023/03/04 06:50:38;;;;;;;37.10;22.67;;;;;;;2.66;89.08;99644.44;1834967;78;21161;-87
2023/03/04 06:53:44;;;;;;;33.55;21.73;;;;;;;2.75;89.22;99642.23;1834975;78;21181;-87
2023/03/04 06:56:49;;;;;;;42.78;23.22;;;;;;;2.82;89.09;99635.25;1765211;81;21173;-80
2023/03/04 06:59:55;;;;;;;43.10;23.22;;;;;;;2.91;89.42;99634.89;1834610;78;21177;-86
2023/03/04 07:03:00;;;;;;;40.88;22.37;;;;;;;3.06;89.57;99637.53;1764922;81;21189;-80
2023/03/04 07:06:07;;;;;;;44.08;24.70;;;;;;;3.19;88.94;99638.05;1836233;78;21129;-79
2023/03/04 07:09:14;;;;;;;37.58;22.95;;;;;;;3.26;88.52;99639.19;1764061;81;21200;-87
2023/03/04 07:12:21;;;;;;;36.50;22.85;;;;;;;3.30;88.70;99632.49;1836205;78;21695;-87
2023/03/04 07:15:27;;;;;;;43.28;24.25;;;;;;;3.40;88.94;99631.11;1765407;81;21181;-86
2023/03/04 07:18:35;;;;;;;48.30;24.77;;;;;;;3.51;88.64;99634.13;1835446;78;21185;-87
2023/03/04 07:21:41;;;;;;;43.58;25.62;;;;;;;3.63;88.41;99628.90;1753345;81;21751;-87
2023/03/04 07:24:47;;;;;;;43.30;25.02;;;;;;;3.71;88.03;99620.87;1769684;81;21170;-80
2023/03/04 07:27:54;;;;;;;37.23;22.73;;;;;;;3.80;88.00;99619.13;1770578;81;21217;-87
2023/03/04 07:30:59;;;;;;;41.08;24.98;;;;;;;3.91;87.31;99626.22;1770036;81;21256;-85
2023/03/04 07:34:14;;;;;;;47.95;25.82;;;;;;;4.01;86.93;99622.95;1769871;81;21192;-87
2023/03/04 07:37:19;;;;;;;40.92;24.52;;;;;;;4.12;86.91;99628.14;1771282;81;21141;-80
2023/03/04 07:40:25;;;;;;;43.55;25.60;;;;;;;4.24;86.88;99626.09;1771238;81;21189;-87
2023/03/04 07:43:30;;;;;;;36.88;23.02;;;;;;;4.29;86.19;99625.98;1771148;81;21193;-80
2023/03/04 07:46:35;;;;;;;47.65;23.42;;;;;;;4.36;85.47;99631.62;1771218;81;21189;-87
2023/03/04 07:49:41;;;;;;;36.42;22.50;;;;;;;4.42;84.98;99630.16;1771210;81;21750;-81
2023/03/04 07:52:40;;;;;;;34.30;20.23;;;;;;;4.50;84.48;99635.66;1771271;81;21217;-84
2023/03/04 07:55:46;;;;;;;33.70;19.87;;;;;;;4.54;83.20;99627.58;1771126;81;21165;-80
2023/03/04 07:58:53;;;;;;;37.00;21.10;;;;;;;4.60;82.71;99629.66;1770082;81;21240;-88
2023/03/04 08:01:59;;;;;;;31.73;20.40;;;;;;;4.68;82.42;99628.90;1769813;81;21189;-80
2023/03/04 08:05:04;;;;;;;34.75;20.37;;;;;;;4.75;82.32;99625.90;1770920;81;21212;-88
2023/03/04 08:08:10;;;;;;;36.25;21.62;;;;;;;4.83;81.84;99620.05;1770489;81;21198;-87
2023/03/04 08:11:20;;;;;;;34.55;19.52;;;;;;;4.95;81.47;99619.83;1770339;81;21168;-85
2023/03/04 08:14:24;;;;;;;;;;;;;;;5.05;80.77;99616.52;1773778;81;21197;-80
2023/03/04 08:17:29;;;;;;;26.20;15.38;;;;;;;5.11;80.36;99607.23;1771243;81;20187;-88
2023/03/04 08:20:35;;;;;;;27.90;16.95;;;;;;;5.20;79.63;99610.01;1771081;81;21244;-80
2023/03/04 08:23:41;;;;;;;27.65;16.60;;;;;;;5.23;77.62;99603.77;1791391;79;21213;-80
2023/03/04 08:26:50;;;;;;;29.50;16.73;;;;;;;5.22;77.43;99606.14;1765503;80;21233;-87
2023/03/04 08:29:56;;;;;;;26.15;15.48;;;;;;;5.25;76.80;99600.38;1836172;78;21158;-80
2023/03/04 08:33:02;;;;;;;26.55;14.47;;;;;;;5.27;75.44;99601.09;1763993;81;21709;-79
2023/03/04 08:36:07;;;;;;;29.98;16.20;;;;;;;5.24;74.04;99593.27;1834579;78;21153;-86
2023/03/04 08:39:13;;;;;;;29.10;15.15;;;;;;;5.24;75.54;99595.98;1764143;81;21205;-80
2023/03/04 08:42:20;;;;;;;24.02;13.28;;;;;;;5.33;75.18;99601.80;1834813;78;21228;-88
2023/03/04 08:45:19;;;;;;;27.50;14.33;;;;;;;5.44;75.17;99593.04;1765394;81;21146;-84
2023/03/04 08:48:11;;;;;;;25.88;16.57;;;;;;;5.54;74.52;99588.34;1835523;78;21153;-79
2023/03/04 08:50:58;;;;;;;25.90;13.93;;;;;;;5.56;74.28;99592.61;1836040;78;21133;-88
2023/03/04 08:53:50;;;;;;;23.05;13.05;;;;;;;5.61;74.51;99579.91;1764278;81;21754;-81
2023/03/04 08:56:36;;;;;;;17.95;10.75;;;;;;;5.70;73.31;99583.02;1836317;78;21141;-88
2023/03/04 08:59:28;;;;;;;22.00;13.40;;;;;;;5.75;72.59;99568.95;1765368;81;21154;-88
2023/03/04 09:02:14;;;;;;;18.90;12.30;;;;;;;5.80;72.47;99576.09;1835024;78;21256;-80
2023/03/04 09:05:07;;;;;;;18.90;12.45;;;;;;;5.87;72.97;99570.34;1836288;78;21145;-80
2023/03/04 09:07:53;;;;;;;20.20;12.93;;;;;;;5.94;72.31;99567.88;1764958;81;21231;-80
2023/03/04 09:10:46;;;;;;;20.30;11.60;;;;;;;5.98;72.04;99561.95;1836191;78;21126;-88
2023/03/04 09:13:32;;;;;;;24.02;13.38;;;;;;;5.94;68.65;99560.58;1834836;78;21168;-79
2023/03/04 09:16:25;;;;;;;20.65;12.58;;;;;;;5.86;68.85;99564.58;1765418;81;21209;-89
2023/03/04 09:19:29;;;;;;;24.23;13.32;;;;;;;5.84;70.17;99563.39;1834635;78;21192;-80
2023/03/04 09:22:35;;;;;;;19.60;12.58;;;;;;;5.86;69.83;99564.06;1764220;81;21173;-88
2023/03/04 09:25:40;;;;;;;18.32;11.05;;;;;;;5.84;68.85;99551.19;1845182;78;21181;-79
2023/03/04 09:28:46;;;;;;;20.20;11.88;;;;;;;5.87;70.29;99548.63;1773678;81;21212;-80
2023/03/04 09:31:52;;;;;;;20.37;11.55;;;;;;;6.00;70.36;99545.48;1772170;81;21197;-87
2023/03/04 09:34:53;;;;;;;20.68;11.93;;;;;;;6.13;69.56;99541.79;1789305;80;21150;-89
2023/03/04 09:37:59;;;;;;;18.85;12.60;;;;;;;6.22;69.51;99536.72;1773198;81;21196;-87
2023/03/04 09:41:05;;;;;;;20.95;13.35;;;;;;;6.29;69.89;99523.30;1773735;81;21181;-89
2023/03/04 09:44:15;;;;;;;23.98;13.65;;;;;;;6.39;68.87;99516.69;1789096;80;21217;-80
2023/03/04 09:47:23;;;;;;;21.17;12.98;;;;;;;6.43;67.79;99506.34;1773611;81;21157;-88
2023/03/04 09:50:30;;;;;;;21.93;13.22;;;;;;;6.45;67.02;99498.05;1773496;81;21695;-80
2023/03/04 09:53:49;;;;;;;22.00;12.98;;;;;;;6.45;66.92;99500.76;1788377;80;21189;-79
2023/03/04 09:56:54;;;;;;;20.92;12.98;;;;;;;6.50;67.23;99494.30;1773558;81;21157;-79
2023/03/04 10:00:30;;;;;;;21.48;13.05;;;;;;;6.55;66.84;99490.05;1749325;81;21208;-79
2023/03/04 10:03:47;;;;;;;20.97;12.28;;;;;;;6.53;64.82;99488.00;1788427;80;21170;-88
2023/03/04 10:06:53;;;;;;;22.48;13.83;;;;;;;6.48;64.82;99484.09;1773751;81;21706;-80
2023/03/04 10:10:12;;;;;;;23.18;13.25;;;;;;;6.45;65.09;99481.74;1773686;81;21249;-81
2023/03/04 10:13:31;;;;;;;22.07;13.13;;;;;;;6.43;65.76;99476.45;1788483;80;21205;-89
2023/03/04 10:16:40;;;;;;;20.90;12.00;;;;;;;6.49;65.82;99470.33;1773824;81;21157;-88
2023/03/04 10:20:20;;;;;;;19.32;12.63;;;;;;;6.56;64.17;99465.93;1773777;81;21217;-88
2023/03/04 10:23:29;;;;;;;22.22;13.88;;;;;;;6.64;64.30;99463.21;1788358;80;21198;-89
2023/03/04 10:26:36;;;;;;;19.10;12.68;;;;;;;6.72;64.27;99458.25;1737161;82;21212;-80
2023/03/04 10:29:43;;;;;;;20.72;12.88;;;;;;;6.79;65.65;99466.08;1743177;82;21208;-80
2023/03/04 10:32:54;;;;;;;23.02;14.05;;;;;;;6.82;62.97;99457.59;1771087;81;21181;-89
2023/03/04 10:36:39;;;;;;;22.73;14.20;;;;;;;6.81;64.04;99447.70;1743960;82;21284;-84
2023/03/04 10:39:52;;;;;;;18.55;12.35;;;;;;;6.87;65.30;99433.45;1745250;81;21185;-88
2023/03/04 10:42:58;;;;;;;20.62;12.60;;;;;;;6.93;62.77;99438.69;1743494;81;21216;-89
2023/03/04 10:46:04;;;;;;;21.68;10.75;;;;;;;6.89;63.30;99435.98;1771474;81;21733;-78
2023/03/04 10:49:09;;;;;;;18.42;12.00;;;;;;;6.87;62.05;99428.01;1742833;82;21213;-79
2023/03/04 10:52:35;;;;;;;21.93;11.45;;;;;;;6.87;61.59;99419.85;1747894;81;21185;-90
2023/03/04 10:55:51;;;;;;;18.82;11.60;;;;;;;6.90;62.25;99418.12;1747760;81;21144;-90
2023/03/04 10:58:58;;;;;;;14.20;9.00;;;;;;;6.92;61.76;99413.89;1743092;81;21793;-89
2023/03/04 11:02:06;;;;;;;19.87;9.73;;;;;;;6.97;62.33;99400.62;1769747;81;21722;-79
2023/03/04 11:05:25;;;;;;;14.20;9.05;;;;;;;7.02;60.16;99391.94;1770657;81;21209;-80
2023/03/04 11:08:31;;;;;;;15.70;8.68;;;;;;;7.03;58.00;99393.11;1770807;81;21212;-88
2023/03/04 11:11:46;;;;;;;13.48;7.90;;;;;;;7.05;57.25;99397.00;1771328;81;21776;-88
2023/03/04 11:14:56;;;;;;;13.28;9.05;;;;;;;7.08;57.78;99381.70;1771230;81;21165;-80
2023/03/04 11:18:08;;;;;;;16.45;9.50;;;;;;;7.08;57.33;99378.98;1771317;81;21742;-80
2023/03/04 11:21:14;;;;;;;14.45;8.95;;;;;;;7.09;57.66;99379.31;1771544;81;21192;-89
2023/03/04 11:24:24;;;;;;;17.40;10.65;;;;;;;7.14;56.10;99367.39;1769859;81;21181;-90
2023/03/04 11:27:49;;;;;;;17.25;9.98;;;;;;;7.18;56.36;99363.30;1792681;79;21735;-88
2023/03/04 11:31:14;;;;;;;23.95;10.43;;;;;;;7.18;56.51;99372.81;1764939;80;21170;-89
2023/03/04 11:34:41;;;;;;;14.28;9.13;;;;;;;7.21;57.29;99367.03;1791003;80;21189;-80
2023/03/04 11:38:13;;;;;;;16.50;9.48;;;;;;;7.27;57.95;99356.80;1792094;80;21225;-89
2023/03/04 11:41:43;;;;;;;16.97;9.23;;;;;;;7.28;55.84;99346.24;1722484;83;21173;-84
2023/03/04 11:44:51;;;;;;;16.52;9.38;;;;;;;7.32;56.73;99337.22;1751285;82;21253;-84
2023/03/04 11:48:17;;;;;;;14.83;9.43;;;;;;;7.36;56.75;99332.59;1752010;82;21193;-79
2023/03/04 11:51:43;;;;;;;17.73;9.88;;;;;;;7.38;55.38;99328.33;1722319;83;21189;-88
2023/03/04 11:54:59;;;;;;;17.45;11.15;;;;;;;7.35;54.79;99328.19;1751560;82;21181;-87
2023/03/04 11:58:34;;;;;;;23.92;11.08;;;;;;;7.34;55.55;99329.71;1750899;82;21225;-80
2023/03/04 12:02:22;;;;;;;19.98;11.57;;;;;;;7.36;57.24;99320.88;1722592;83;21168;-89
2023/03/04 12:05:51;;;;;;;16.67;10.18;;;;;;;7.39;57.21;99321.89;1752339;82;21189;-84
2023/03/04 12:09:52;;;;;;;17.48;10.50;;;;;;;7.45;56.08;99314.36;1721580;83;21185;-79
2023/03/04 12:13:22;;;;;;;18.70;10.38;;;;;;;7.47;55.37;99308.72;1752010;82;21204;-89
2023/03/04 12:17:10;;;;;;;15.72;9.68;;;;;;;7.47;55.11;99312.80;1722502;83;21173;-89
2023/03/04 12:20:32;;;;;;;18.75;11.43;;;;;;;7.42;54.61;99310.62;1722581;83;21158;-79
2023/03/04 12:24:17;;;;;;;20.85;10.43;;;;;;;7.43;55.99;99308.23;1751308;82;21793;-79
2023/03/04 12:27:57;;;;;;;20.77;11.33;;;;;;;7.45;55.45;99296.67;1746990;80;21247;-79
2023/03/04 12:31:18;;;;;;;22.37;10.38;;;;;;;7.40;54.76;99304.02;1764345;81;21746;-79
2023/03/04 12:34:44;;;;;;;20.35;11.95;;;;;;;7.39;54.82;99298.77;1835204;78;21283;-79
2023/03/04 12:38:09;;;;;;;24.27;11.83;;;;;;;7.36;55.31;99294.52;1836442;78;21762;-79
2023/03/04 12:41:55;;;;;;;20.25;12.00;;;;;;;7.34;56.09;99294.34;1764794;81;21232;-83
2023/03/04 12:45:29;;;;;;;19.07;12.10;;;;;;;7.32;55.67;99294.53;1835512;78;21177;-79
2023/03/04 12:48:46;;;;;;;22.80;12.35;;;;;;;7.27;56.36;99283.87;1764708;81;21201;-88
2023/03/04 12:52:00;;;;;;;19.37;11.28;;;;;;;7.24;55.69;99284.22;1836220;78;21208;-78
2023/03/04 12:55:10;;;;;;;21.50;11.57;;;;;;;7.22;55.92;99278.97;1741958;81;21216;-89
2023/03/04 12:58:33;;;;;;;19.10;10.78;;;;;;;7.21;55.82;99275.08;1835955;78;21161;-79
2023/03/04 13:01:45;;;;;;;24.32;12.03;;;;;;;7.15;54.78;99269.34;1836604;78;21705;-80
2023/03/04 13:05:11;;;;;;;21.57;10.70;;;;;;;7.10;54.49;99264.91;1766313;81;21184;-90
2023/03/04 13:08:47;;;;;;;24.37;11.33;;;;;;;7.08;54.86;99251.19;1836907;78;21185;-79
2023/03/04 13:11:59;;;;;;;21.15;10.72;;;;;;;7.08;54.86;99256.11;1836402;78;21224;-89
2023/03/04 13:15:20;;;;;;;18.05;10.88;;;;;;;7.07;54.90;99254.94;1765640;81;21209;-90
2023/03/04 13:18:43;;;;;;;17.95;11.85;;;;;;;7.07;54.97;99243.55;1839432;77;21438;-88
2023/03/04 13:21:53;;;;;;;19.52;11.25;;;;;;;7.07;54.29;99238.63;1840074;77;21145;-87
2023/03/04 13:24:58;;;;;;;23.65;12.58;;;;;;;7.06;54.61;99236.42;1839392;77;21565;-89
2023/03/04 13:28:19;;;;;;;21.17;10.80;;;;;;;7.04;54.67;99230.30;1837535;76;21188;-90
2023/03/04 13:31:30;;;;;;;21.15;11.12;;;;;;;7.05;55.54;99231.98;1837599;78;21173;-89
2023/03/04 13:34:58;;;;;;;17.35;10.45;;;;;;;7.07;54.98;99233.19;1765554;81;21186;-79
2023/03/04 13:38:07;;;;;;;19.80;10.60;;;;;;;7.07;54.96;99230.46;1836434;78;21165;-89
2023/03/04 13:41:39;;;;;;;18.62;10.98;;;;;;;7.05;54.63;99217.55;1836755;78;21125;-80
2023/03/04 13:44:56;;;;;;;15.93;9.08;;;;;;;7.02;53.41;99226.08;1745285;82;21317;-90
2023/03/04 13:48:01;;;;;;;18.65;10.08;;;;;;;7.00;53.51;99222.67;1744815;82;21204;-80
2023/03/04 13:51:07;;;;;;;17.10;9.28;;;;;;;6.97;53.43;99212.19;1836111;78;21189;-79
2023/03/04 13:54:34;;;;;;;17.92;9.88;;;;;;;6.94;53.82;99211.17;1763662;81;21197;-89
2023/03/04 13:57:41;;;;;;;18.62;10.78;;;;;;;6.91;53.78;99203.69;1835599;78;21138;-80
2023/03/04 14:00:58;;;;;;;15.48;10.40;;;;;;;6.94;54.38;99203.02;1763998;81;21141;-80
2023/03/04 14:04:06;;;;;;;17.10;9.88;;;;;;;6.91;53.88;99204.20;1835337;78;21193;-80
2023/03/04 14:07:38;;;;;;;21.30;10.58;;;;;;;6.86;54.14;99196.59;1836536;78;21161;-88
2023/03/04 14:10:44;;;;;;;20.90;11.45;;;;;;;6.82;54.37;99192.56;1763893;81;21169;-79
2023/03/04 14:13:51;;;;;;;18.20;10.93;;;;;;;6.75;54.04;99183.94;1834812;78;21134;-79
2023/03/04 14:17:09;;;;;;;21.00;11.88;;;;;;;6.73;54.64;99189.56;1764092;81;21248;-90
2023/03/04 14:20:01;;;;;;;;;;;;;;;6.70;55.22;99189.06;1839257;78;21180;-88
2023/03/04 14:23:09;;;;;;;17.77;9.85;;;;;;;6.68;55.62;99185.66;1835729;78;20205;-78
2023/03/04 14:26:21;;;;;;;17.87;10.85;;;;;;;6.63;55.87;99187.07;1765504;81;21197;-88
2023/03/04 14:29:34;;;;;;;18.57;10.43;;;;;;;6.60;55.46;99190.65;1834291;78;21185;-89
2023/03/04 14:32:39;;;;;;;22.52;10.50;;;;;;;6.56;54.68;99190.67;1765339;81;21197;-79
2023/03/04 14:35:49;;;;;;;17.25;10.53;;;;;;;6.52;54.83;99187.45;1835906;78;21183;-89
2023/03/04 14:39:02;;;;;;;16.87;10.15;;;;;;;6.48;55.61;99189.34;1730174;81;21220;-80
2023/03/04 14:42:14;;;;;;;19.40;10.15;;;;;;;6.40;56.13;99177.51;1836469;78;21122;-89
2023/03/04 14:45:21;;;;;;;17.10;10.25;;;;;;;6.32;55.83;99181.61;1765687;81;21181;-91
2023/03/04 14:48:35;;;;;;;15.20;9.38;;;;;;;6.26;55.51;99178.77;1836537;78;21208;-89